Time;durP1;ratioP1;P1;durP2;ratioP2;P2;SDS_P1;SDS_P2;PMS_P1;PMS_P2;Temp;Humidity;BMP_temperature;BMP_pressure;BME280_temperature;BME280_humidity;BME280_pressure;Samples;Min_cycle;Max_cycle;Signal;HPM_P1;HPM_P2
2023/01/16 00:00:52;;;;;;;4.50;1.38;;;6.20;99.90;;;;;;5038150;28;20029;-82
2023/01/16 00:03:18;;;;;;;4.45;1.23;;;6.20;99.90;;;;;;5038317;28;20104;-82
2023/01/16 00:05:44;;;;;;;3.80;1.27;;;6.20;99.90;;;;;;5005203;28;20064;-81
2023/01/16 00:08:10;;;;;;;6.25;1.38;;;6.20;99.90;;;;;;5038554;28;20107;-83
2023/01/16 00:10:36;;;;;;;4.43;1.35;;;6.20;99.90;;;;;;5056137;28;20029;-83
2023/01/16 00:13:02;;;;;;;10.50;2.13;;;6.20;99.90;;;;;;5055594;28;20032;-83
2023/01/16 00:15:28;;;;;;;5.38;1.60;;;6.20;99.90;;;;;;5055352;28;20354;-83
2023/01/16 00:17:53;;;;;;;5.53;1.83;;;6.20;99.90;;;;;;5038156;28;20028;-83
2023/01/16 00:20:19;;;;;;;4.47;1.80;;;6.20;99.90;;;;;;5055318;28;20030;-83
2023/01/16 00:22:45;;;;;;;3.90;1.70;;;6.20;99.90;;;;;;5037753;28;20020;-83
2023/01/16 00:25:11;;;;;;;4.32;1.90;;;6.30;99.90;;;;;;5037662;28;20382;-83
2023/01/16 00:27:37;;;;;;;4.57;2.20;;;6.20;99.90;;;;;;5055585;28;20100;-83
2023/01/16 00:30:04;;;;;;;4.95;2.40;;;6.20;99.90;;;;;;5037335;28;20071;-83
2023/01/16 00:32:29;;;;;;;3.42;2.30;;;6.20;99.90;;;;;;5037724;28;20116;-83
2023/01/16 00:34:55;;;;;;;4.50;2.47;;;6.20;99.90;;;;;;5021042;28;20048;-84
2023/01/16 00:37:21;;;;;;;6.40;2.75;;;6.20;99.90;;;;;;5055356;28;20108;-83
2023/01/16 00:39:46;;;;;;;6.00;3.50;;;6.20;99.90;;;;;;5021375;28;20056;-83
2023/01/16 00:42:12;;;;;;;5.55;3.17;;;6.20;99.90;;;;;;5055833;28;20079;-82
2023/01/16 00:44:38;;;;;;;7.00;3.50;;;6.20;99.90;;;;;;5037716;28;20031;-81
2023/01/16 00:47:04;;;;;;;6.05;4.03;;;6.20;99.90;;;;;;5021428;28;20072;-82
2023/01/16 00:49:30;;;;;;;6.53;4.53;;;6.20;99.90;;;;;;5021189;28;20086;-82
2023/01/16 00:51:56;;;;;;;8.43;4.85;;;6.10;99.90;;;;;;5055214;28;20037;-82
2023/01/16 00:54:21;;;;;;;7.68;5.40;;;6.10;99.90;;;;;;5020432;28;20029;-82
2023/01/16 00:56:47;;;;;;;7.40;5.13;;;6.10;99.90;;;;;;5055497;28;20036;-82
2023/01/16 00:59:13;;;;;;;8.48;5.63;;;6.10;99.90;;;;;;5036891;28;20025;-82
2023/01/16 01:01:38;;;;;;;8.15;6.05;;;6.10;99.90;;;;;;5054831;28;20022;-81
2023/01/16 01:04:04;;;;;;;8.48;5.60;;;6.10;99.90;;;;;;5036783;28;20047;-82
2023/01/16 01:06:30;;;;;;;7.40;5.32;;;6.00;99.90;;;;;;5020582;28;20437;-81
2023/01/16 01:08:56;;;;;;;6.88;5.00;;;6.00;99.90;;;;;;5036959;28;20027;-82
2023/01/16 01:11:22;;;;;;;8.55;5.22;;;6.00;99.90;;;;;;5037632;28;20055;-82
2023/01/16 01:13:48;;;;;;;8.23;4.47;;;6.00;99.90;;;;;;5054998;28;20025;-82
2023/01/16 01:16:15;;;;;;;6.20;4.63;;;6.00;99.90;;;;;;5036808;28;20021;-86
2023/01/16 01:18:41;;;;;;;6.85;4.05;;;5.90;99.90;;;;;;5036960;28;20025;-86
2023/01/16 01:21:06;;;;;;;6.97;4.25;;;5.90;99.90;;;;;;5036593;28;20115;-85
2023/01/16 01:23:33;;;;;;;4.85;3.45;;;5.90;99.90;;;;;;5036935;28;20398;-86
2023/01/16 01:26:04;;;;;;;5.30;3.35;;;5.90;99.90;;;;;;5020193;28;20086;-86
2023/01/16 01:28:30;;;;;;;5.80;3.60;;;5.90;99.90;;;;;;5054647;28;20021;-86
2023/01/16 01:30:56;;;;;;;4.88;3.53;;;5.90;99.90;;;;;;5020016;28;20037;-83
2023/01/16 01:33:21;;;;;;;8.90;4.10;;;5.80;99.90;;;;;;5019659;28;20033;-83
2023/01/16 01:35:47;;;;;;;7.18;4.13;;;5.80;99.90;;;;;;5036640;28;20033;-83
2023/01/16 01:38:12;;;;;;;8.27;4.13;;;5.80;99.90;;;;;;5035949;28;20102;-83
2023/01/16 01:40:38;;;;;;;6.90;4.00;;;5.80;99.90;;;;;;5003791;28;20060;-83
2023/01/16 01:43:12;;;;;;;9.48;4.97;;;5.80;99.90;;;;;;5054368;28;20021;-83
2023/01/16 01:45:38;;;;;;;9.80;3.83;;;5.80;99.90;;;;;;5036115;28;20021;-83
2023/01/16 01:48:29;;;;;;;7.78;4.00;;;5.70;99.90;;;;;;5053442;28;20053;-82
2023/01/16 01:50:55;;;;;;;7.45;3.65;;;5.80;99.90;;;;;;5035772;28;20025;-82
2023/01/16 01:53:37;;;;;;;6.60;3.08;;;5.70;99.90;;;;;;5053876;28;20025;-82
2023/01/16 01:56:21;;;;;;;8.75;3.08;;;5.70;99.90;;;;;;5035668;28;20044;-82
2023/01/16 01:58:52;;;;;;;9.65;2.47;;;5.70;99.90;;;;;;5036037;28;20102;-82
2023/01/16 02:01:17;;;;;;;4.75;2.20;;;5.70;99.90;;;;;;5053862;28;20099;-82
2023/01/16 02:03:59;;;;;;;6.35;2.60;;;5.70;99.90;;;;;;5019592;28;20060;-82
2023/01/16 02:06:33;;;;;;;7.28;2.47;;;5.70;99.90;;;;;;5035903;28;20495;-83
2023/01/16 02:08:59;;;;;;;8.23;1.70;;;5.70;99.90;;;;;;5035994;28;20029;-83
2023/01/16 02:11:41;;;;;;;5.82;2.22;;;5.70;99.90;;;;;;5053451;28;20029;-82
2023/01/16 02:14:11;;;;;;;6.30;2.00;;;5.70;99.90;;;;;;5035477;28;20060;-83
2023/01/16 02:19:43;;;;;;;7.03;2.22;;;5.70;99.90;;;;;;5054324;28;20044;-83
2023/01/16 02:22:27;;;;;;;6.03;1.83;;;5.70;99.90;;;;;;5035562;28;20047;-82
2023/01/16 02:25:41;;;;;;;7.93;2.08;;;5.70;99.90;;;;;;5035815;28;20067;-82
2023/01/16 02:28:44;;;;;;;9.27;2.20;;;5.70;99.90;;;;;;5053265;28;20032;-82
2023/01/16 02:31:22;;;;;;;6.25;1.77;;;5.70;99.90;;;;;;5053233;28;20385;-82
2023/01/16 02:34:43;;;;;;;9.32;2.53;;;5.70;99.90;;;;;;5035418;28;20026;-82
2023/01/16 02:37:32;;;;;;;8.05;1.67;;;5.70;99.90;;;;;;4999066;28;20052;-82
2023/01/16 02:40:10;;;;;;;7.65;1.70;;;5.70;99.90;;;;;;5053884;28;20025;-86
2023/01/16 02:42:49;;;;;;;6.82;1.75;;;5.70;99.90;;;;;;5036541;28;20033;-86
2023/01/16 02:45:27;;;;;;;7.00;1.70;;;5.60;99.90;;;;;;5036005;28;20029;-86
2023/01/16 02:48:06;;;;;;;6.68;1.60;;;5.60;99.90;;;;;;5054028;28;20140;-86
2023/01/16 02:50:51;;;;;;;6.25;1.70;;;5.50;99.90;;;;;;5053405;28;20027;-82
2023/01/16 02:53:48;;;;;;;7.57;1.80;;;5.50;99.90;;;;;;5053558;28;20106;-82
2023/01/16 02:56:24;;;;;;;5.15;1.50;;;5.40;99.90;;;;;;5035570;28;20032;-83
2023/01/16 02:58:51;;;;;;;4.10;1.40;;;5.30;99.90;;;;;;5053581;28;20101;-83
2023/01/16 03:01:18;;;;;;;10.70;1.65;;;5.30;99.90;;;;;;5053341;28;20100;-83
2023/01/16 03:03:46;;;;;;;11.45;1.73;;;5.20;99.90;;;;;;5053059;28;20078;-83
2023/01/16 03:06:31;;;;;;;5.85;1.50;;;5.20;99.90;;;;;;5035140;28;20059;-83
2023/01/16 03:09:19;;;;;;;7.18;1.40;;;5.20;99.90;;;;;;5035357;28;20462;-83
2023/01/16 03:11:51;;;;;;;10.40;1.92;;;5.10;99.90;;;;;;5009562;28;20041;-82
2023/01/16 03:14:46;;;;;;;7.07;1.67;;;5.10;99.90;;;;;;5035198;28;20478;-82
2023/01/16 03:17:18;;;;;;;10.57;1.45;;;5.00;99.90;;;;;;5037121;28;20033;-82
2023/01/16 03:20:05;;;;;;;8.10;1.95;;;5.00;99.90;;;;;;5038706;28;20433;-82
2023/01/16 03:22:46;;;;;;;8.05;1.63;;;5.10;99.90;;;;;;5038779;28;20108;-82
2023/01/16 03:25:29;;;;;;;8.80;1.77;;;5.10;99.90;;;;;;5039138;28;20032;-82
2023/01/16 03:28:08;;;;;;;10.20;2.17;;;5.00;99.90;;;;;;5057004;28;20029;-82
2023/01/16 03:30:59;;;;;;;9.35;1.80;;;5.00;99.90;;;;;;5056511;28;20053;-82
2023/01/16 03:33:58;;;;;;;6.53;1.40;;;5.00;99.90;;;;;;5056543;28;20111;-82
2023/01/16 03:36:42;;;;;;;8.18;1.85;;;5.00;99.90;;;;;;5038362;28;20450;-82
2023/01/16 03:39:10;;;;;;;6.40;1.73;;;5.00;99.90;;;;;;5056406;28;20017;-82
2023/01/16 03:41:39;;;;;;;9.30;1.77;;;5.00;99.90;;;;;;5056086;28;20119;-82
2023/01/16 03:44:11;;;;;;;8.77;1.80;;;5.00;99.90;;;;;;5056171;28;20021;-86
2023/01/16 03:46:43;;;;;;;5.57;1.60;;;5.00;99.90;;;;;;5056242;28;20045;-85
2023/01/16 03:49:33;;;;;;;6.97;1.20;;;4.90;99.90;;;;;;5039237;28;20497;-85
2023/01/16 03:52:04;;;;;;;4.68;1.45;;;4.90;99.90;;;;;;5038301;28;20037;-86
2023/01/16 03:55:19;;;;;;;12.35;2.50;;;5.00;99.90;;;;;;5038132;28;20044;-86
2023/01/16 03:57:51;;;;;;;7.60;1.70;;;4.90;99.90;;;;;;4940597;29;20027;-86
2023/01/16 04:00:18;;;;;;;8.10;1.30;;;5.00;99.90;;;;;;5048464;28;20040;-86
2023/01/16 04:02:53;;;;;;;12.00;2.67;;;5.00;99.90;;;;;;5038804;28;20477;-86
2023/01/16 04:05:28;;;;;;;7.80;1.40;;;5.00;99.90;;;;;;5038626;28;20112;-86
2023/01/16 04:07:57;;;;;;;3.75;1.10;;;5.00;99.90;;;;;;5038608;28;20063;-86
2023/01/16 04:10:27;;;;;;;6.45;1.17;;;5.00;99.90;;;;;;5056572;28;20131;-86
2023/01/16 04:13:04;;;;;;;10.90;1.60;;;5.00;99.90;;;;;;5038484;28;20017;-86
2023/01/16 04:15:32;;;;;;;6.57;1.20;;;5.00;99.90;;;;;;5038391;28;20017;-86
2023/01/16 04:17:58;;;;;;;8.32;1.55;;;5.10;99.90;;;;;;5038247;28;20028;-82
2023/01/16 04:20:25;;;;;;;5.40;1.50;;;5.10;99.90;;;;;;5040058;28;20013;-81
2023/01/16 04:22:51;;;;;;;8.07;1.50;;;5.10;99.90;;;;;;5057330;28;20021;-81
2023/01/16 04:25:17;;;;;;;8.45;1.48;;;5.10;99.90;;;;;;5039190;28;20060;-82
2023/01/16 04:27:43;;;;;;;5.55;2.08;;;5.10;99.90;;;;;;5057686;28;20094;-82
2023/01/16 04:30:09;;;;;;;4.70;1.60;;;5.10;99.90;;;;;;5057620;28;20475;-82
2023/01/16 04:32:35;;;;;;;7.63;1.90;;;5.10;99.90;;;;;;5031523;28;20474;-82
2023/01/16 04:35:01;;;;;;;7.05;2.20;;;5.10;99.90;;;;;;5024737;28;20029;-82
2023/01/16 04:37:26;;;;;;;7.13;2.00;;;5.10;99.90;;;;;;5001501;28;20034;-82
2023/01/16 04:39:52;;;;;;;9.00;2.30;;;5.10;99.90;;;;;;5035351;28;20075;-86
2023/01/16 04:42:18;;;;;;;8.25;2.20;;;5.10;99.90;;;;;;5036144;28;20064;-86
2023/01/16 04:44:44;;;;;;;6.75;2.03;;;5.10;99.90;;;;;;5001926;28;20386;-86
2023/01/16 04:47:10;;;;;;;9.90;2.05;;;5.10;99.90;;;;;;5010551;28;20440;-86
2023/01/16 04:49:36;;;;;;;12.63;1.90;;;5.10;99.90;;;;;;4979194;28;20034;-86
2023/01/16 04:52:02;;;;;;;8.02;1.83;;;5.10;99.90;;;;;;4978751;28;20038;-82
2023/01/16 04:54:28;;;;;;;7.90;2.15;;;5.10;99.90;;;;;;4995321;28;20022;-82
2023/01/16 04:56:54;;;;;;;7.55;2.25;;;5.10;99.90;;;;;;4962369;28;20034;-82
2023/01/16 04:59:20;;;;;;;8.10;1.98;;;5.10;99.90;;;;;;4978555;28;20033;-83
2023/01/16 05:01:46;;;;;;;13.20;1.80;;;5.20;99.90;;;;;;4994501;28;20064;-82
2023/01/16 05:04:13;;;;;;;8.23;1.80;;;5.20;99.90;;;;;;4995540;28;20033;-82
2023/01/16 05:06:39;;;;;;;8.27;1.35;;;5.20;99.90;;;;;;4995516;28;20062;-83
2023/01/16 05:09:05;;;;;;;8.35;1.95;;;5.20;99.90;;;;;;4977964;28;20443;-82
2023/01/16 05:11:32;;;;;;;8.35;1.75;;;5.10;99.90;;;;;;4995826;28;20130;-83
2023/01/16 05:13:58;;;;;;;7.07;2.70;;;5.20;99.90;;;;;;4994372;28;20030;-82
2023/01/16 05:16:25;;;;;;;4.55;1.50;;;5.10;99.90;;;;;;4978190;28;20026;-82
2023/01/16 05:18:51;;;;;;;6.38;1.77;;;5.10;99.90;;;;;;4977870;28;20022;-82
2023/01/16 05:21:17;;;;;;;10.57;1.90;;;5.10;99.90;;;;;;4978024;28;20099;-82
2023/01/16 05:23:42;;;;;;;8.70;2.05;;;5.10;99.90;;;;;;4962126;28;20073;-82
2023/01/16 05:26:08;;;;;;;8.90;2.10;;;5.10;99.90;;;;;;4978084;28;20042;-86
2023/01/16 05:28:35;;;;;;;11.57;3.55;;;5.00;99.90;;;;;;4978330;28;20038;-87
2023/01/16 05:31:01;;;;;;;7.70;2.15;;;5.00;99.90;;;;;;4994847;28;20033;-87
2023/01/16 05:33:28;;;;;;;8.35;2.20;;;5.10;99.90;;;;;;4978404;28;20041;-87
2023/01/16 05:35:54;;;;;;;8.65;2.20;;;5.00;99.90;;;;;;4978441;28;20484;-87
2023/01/16 05:38:20;;;;;;;7.50;2.10;;;5.00;99.90;;;;;;4994410;28;20029;-87
2023/01/16 05:40:46;;;;;;;10.85;2.17;;;5.00;99.90;;;;;;4977108;28;20045;-87
2023/01/16 05:43:12;;;;;;;6.75;1.90;;;5.00;99.90;;;;;;5001541;28;20026;-87
2023/01/16 05:45:38;;;;;;;9.93;2.10;;;5.10;99.90;;;;;;5013657;28;20029;-83
2023/01/16 05:48:04;;;;;;;10.80;2.17;;;5.10;99.90;;;;;;5004821;28;20108;-86
2023/01/16 05:50:30;;;;;;;6.13;1.70;;;5.10;99.90;;;;;;4982809;28;20029;-87
2023/01/16 05:52:56;;;;;;;12.75;2.00;;;5.10;99.90;;;;;;4994007;28;20030;-86
2023/01/16 05:55:22;;;;;;;7.22;2.03;;;5.10;99.90;;;;;;4995060;28;20349;-86
2023/01/16 05:57:47;;;;;;;9.05;2.40;;;5.10;99.90;;;;;;4993863;28;20041;-86
2023/01/16 06:00:14;;;;;;;5.40;1.50;;;5.10;99.90;;;;;;4978367;28;20018;-86
2023/01/16 06:02:39;;;;;;;10.13;2.58;;;5.10;99.90;;;;;;4994517;28;20035;-83
2023/01/16 06:05:06;;;;;;;7.97;1.70;;;5.10;99.90;;;;;;5000339;28;20083;-82
2023/01/16 06:07:31;;;;;;;4.72;1.45;;;5.20;99.90;;;;;;5013043;28;20034;-84
2023/01/16 06:09:57;;;;;;;7.00;2.03;;;5.20;99.90;;;;;;4994342;28;20026;-84
2023/01/16 06:12:23;;;;;;;6.78;1.95;;;5.20;99.90;;;;;;4993289;28;20030;-84
2023/01/16 06:14:48;;;;;;;5.38;1.40;;;5.20;99.90;;;;;;4993284;28;20033;-84
2023/01/16 06:17:15;;;;;;;7.22;1.60;;;5.20;99.90;;;;;;5003493;28;20129;-86
2023/01/16 06:19:42;;;;;;;5.07;1.30;;;5.20;99.90;;;;;;5017375;28;20019;-85
2023/01/16 06:22:08;;;;;;;6.70;1.50;;;5.20;99.90;;;;;;5012546;28;20126;-86
2023/01/16 06:24:33;;;;;;;6.53;2.20;;;5.20;99.90;;;;;;4987405;28;20057;-87
2023/01/16 06:26:59;;;;;;;11.38;3.42;;;5.20;99.90;;;;;;5012422;28;20043;-87
2023/01/16 06:29:25;;;;;;;9.70;3.47;;;5.20;99.90;;;;;;5010644;28;20087;-87
2023/01/16 06:31:50;;;;;;;10.93;3.80;;;5.20;99.90;;;;;;4999298;28;20030;-83
2023/01/16 06:34:16;;;;;;;7.75;3.90;;;5.30;99.90;;;;;;4977173;28;20034;-83
2023/01/16 06:36:42;;;;;;;9.68;3.05;;;5.30;99.90;;;;;;4998890;28;20026;-83
2023/01/16 06:39:11;;;;;;;9.75;2.92;;;5.20;99.90;;;;;;5005783;28;20106;-83
2023/01/16 06:41:36;;;;;;;7.70;2.55;;;5.30;99.90;;;;;;4992625;28;20033;-82
2023/01/16 06:44:02;;;;;;;7.50;2.10;;;5.20;99.90;;;;;;4977064;28;20030;-83
2023/01/16 06:46:28;;;;;;;7.03;2.80;;;5.20;99.90;;;;;;5003507;28;20112;-83
2023/01/16 06:48:53;;;;;;;6.75;1.73;;;5.20;99.90;;;;;;5013773;28;20564;-86
2023/01/16 06:51:19;;;;;;;5.07;1.80;;;5.20;99.90;;;;;;4996878;28;20368;-87
2023/01/16 06:53:45;;;;;;;8.23;1.35;;;5.20;99.90;;;;;;5000185;28;20033;-84
2023/01/16 06:56:10;;;;;;;7.43;1.10;;;5.20;99.90;;;;;;5014217;28;20028;-84
2023/01/16 06:58:36;;;;;;;6.38;1.17;;;5.20;99.90;;;;;;4987387;28;20471;-84
2023/01/16 07:01:02;;;;;;;7.45;2.10;;;5.20;99.90;;;;;;5005898;28;20030;-84
2023/01/16 07:03:27;;;;;;;5.55;1.13;;;5.20;99.90;;;;;;5010169;28;20117;-83
2023/01/16 07:05:53;;;;;;;5.32;1.40;;;5.20;99.90;;;;;;5001525;28;20038;-87
2023/01/16 07:08:19;;;;;;;6.25;1.35;;;5.20;99.90;;;;;;5011868;28;20030;-87
2023/01/16 07:10:44;;;;;;;4.78;1.58;;;5.20;99.90;;;;;;4988795;28;20060;-87
2023/01/16 07:13:10;;;;;;;6.20;1.40;;;5.20;99.90;;;;;;5016947;28;20034;-87
2023/01/16 07:24:03;;;;;;;8.23;1.35;;;5.20;99.90;;;;;;5004138;28;20475;-87
2023/01/16 07:26:30;;;;;;;9.02;2.22;;;5.20;99.90;;;;;;5016438;28;20029;-88
2023/01/16 07:28:57;;;;;;;10.55;1.70;;;5.20;99.90;;;;;;5017355;28;20451;-87
2023/01/16 07:31:24;;;;;;;5.45;1.60;;;5.20;99.90;;;;;;4999647;28;20052;-87
2023/01/16 07:33:50;;;;;;;7.47;1.60;;;5.20;99.90;;;;;;4999198;28;20034;-87
2023/01/16 07:36:15;;;;;;;4.45;1.67;;;5.10;99.90;;;;;;5016545;28;20025;-83
2023/01/16 07:38:41;;;;;;;7.20;1.70;;;5.20;99.90;;;;;;4999497;28;20029;-82
2023/01/16 07:41:06;;;;;;;8.52;1.73;;;5.20;99.90;;;;;;5016871;28;20026;-83
2023/01/16 07:43:32;;;;;;;8.30;1.63;;;5.20;99.90;;;;;;5016554;28;20037;-83
2023/01/16 07:45:58;;;;;;;5.65;1.63;;;5.20;99.90;;;;;;5015887;28;20022;-82
2023/01/16 07:48:24;;;;;;;5.97;1.60;;;5.20;99.90;;;;;;5015133;28;20052;-82
2023/01/16 07:50:55;;;;;;;8.18;1.98;;;5.20;99.90;;;;;;4995863;28;20086;-82
2023/01/16 07:53:22;;;;;;;;;;;5.20;99.90;;;;;;4996276;28;20027;-82
2023/01/16 07:55:55;;;;;;;9.07;2.13;;;5.20;99.90;;;;;;4997962;28;19910;-87
2023/01/16 07:58:21;;;;;;;9.88;2.08;;;5.10;99.90;;;;;;5015777;28;20030;-86
2023/01/16 08:00:48;;;;;;;7.35;2.28;;;5.20;99.90;;;;;;5024288;28;20048;-86
2023/01/16 08:03:14;;;;;;;4.90;1.60;;;5.10;99.90;;;;;;5025782;28;20033;-87
2023/01/16 08:05:40;;;;;;;7.10;1.67;;;5.20;99.90;;;;;;5016020;28;20029;-82
2023/01/16 08:08:06;;;;;;;6.22;1.98;;;5.20;99.90;;;;;;4998746;28;20124;-82
2023/01/16 08:10:32;;;;;;;9.52;2.03;;;5.10;99.90;;;;;;5014530;28;20117;-82
2023/01/16 08:12:58;;;;;;;4.47;1.50;;;5.20;99.90;;;;;;5015945;28;20459;-83
2023/01/16 08:15:24;;;;;;;4.80;1.55;;;5.20;99.90;;;;;;5014981;28;20041;-83
2023/01/16 08:17:49;;;;;;;4.32;1.30;;;5.20;99.90;;;;;;5014956;28;20094;-83
2023/01/16 08:20:15;;;;;;;6.50;1.48;;;5.20;99.90;;;;;;5014945;28;20030;-83
2023/01/16 08:22:49;;;;;;;5.72;1.52;;;5.20;99.90;;;;;;5014466;28;20022;-84
2023/01/16 08:25:16;;;;;;;9.85;1.77;;;5.20;99.90;;;;;;5015052;28;20040;-84
2023/01/16 08:27:42;;;;;;;7.30;1.85;;;5.20;99.90;;;;;;5014724;28;20026;-84
2023/01/16 08:30:09;;;;;;;6.10;1.50;;;5.10;99.90;;;;;;5014792;28;20029;-83
2023/01/16 08:33:12;;;;;;;5.00;1.55;;;5.10;99.90;;;;;;5016670;28;20029;-92
2023/01/16 08:35:43;;;;;;;6.43;1.77;;;5.20;99.90;;;;;;5015951;28;20026;-92
2023/01/16 08:38:09;;;;;;;7.00;1.30;;;5.20;99.90;;;;;;4983553;28;20057;-91
2023/01/16 08:40:35;;;;;;;3.40;1.27;;;5.20;99.90;;;;;;5009782;28;20060;-93
2023/01/16 08:52:41;;;;;;;4.20;1.30;;;5.20;99.90;;;;;;5040010;28;20116;-92
2023/01/16 08:55:10;;;;;;;8.23;1.88;;;5.20;99.90;;;;;;5022427;28;20035;-93
2023/01/16 08:57:42;;;;;;;6.43;1.52;;;5.20;99.90;;;;;;5024965;28;20489;-93
2023/01/16 09:00:08;;;;;;;10.02;1.70;;;5.20;99.90;;;;;;5023328;28;20466;-85
2023/01/16 09:02:40;;;;;;;7.07;1.60;;;5.20;99.90;;;;;;5026798;28;20096;-94
2023/01/16 09:05:15;;;;;;;6.22;1.83;;;5.20;99.90;;;;;;5019844;28;20455;-93
2023/01/16 09:08:06;;;;;;;6.78;1.70;;;5.30;99.90;;;;;;5023726;28;20021;-94
2023/01/16 09:10:34;;;;;;;7.20;1.52;;;5.20;99.90;;;;;;5017828;28;20033;-92
2023/01/16 09:15:47;;;;;;;7.65;2.53;;;5.30;99.90;;;;;;5020370;28;20091;-93
2023/01/16 09:21:35;;;;;;;3.25;1.65;;;5.30;99.90;;;;;;5039115;28;20032;-89
2023/01/16 09:24:02;;;;;;;6.38;2.15;;;5.20;99.90;;;;;;5021043;28;20033;-90
2023/01/16 09:26:28;;;;;;;10.73;2.60;;;5.20;99.90;;;;;;5024608;28;20022;-95
2023/01/16 09:28:54;;;;;;;4.53;1.77;;;5.20;99.90;;;;;;5008901;28;20172;-86
2023/01/16 09:31:19;;;;;;;6.38;2.03;;;5.30;99.90;;;;;;4995403;28;20454;-89
2023/01/16 09:33:47;;;;;;;5.82;2.30;;;5.30;99.90;;;;;;5016661;28;20060;-87
2023/01/16 09:36:13;;;;;;;7.25;2.00;;;5.30;99.90;;;;;;5005011;28;20032;-90
2023/01/16 09:38:39;;;;;;;7.85;2.22;;;5.30;99.90;;;;;;5014617;28;20029;-90
2023/01/16 09:41:06;;;;;;;8.93;2.70;;;5.30;99.90;;;;;;5017450;28;20029;-91
2023/01/16 09:43:46;;;;;;;6.57;3.00;;;5.30;99.90;;;;;;5002080;28;20524;-94
2023/01/16 09:46:24;;;;;;;7.37;2.70;;;5.30;99.90;;;;;;5025768;28;20080;-89
2023/01/16 09:48:50;;;;;;;13.40;2.90;;;5.30;99.90;;;;;;5027806;28;20053;-89
2023/01/16 09:58:34;;;;;;;7.95;2.80;;;5.30;99.90;;;;;;5032294;28;20083;-88
2023/01/16 10:00:05;;;;;;;6.10;2.30;;;5.30;99.90;;;;;;5035797;28;20120;-88
2023/01/16 10:02:33;;;;;;;6.35;2.50;;;5.30;99.90;;;;;;5016537;28;20026;-88
2023/01/16 10:05:02;;;;;;;7.88;2.50;;;5.30;99.90;;;;;;5031973;28;20025;-88
2023/01/16 10:08:12;;;;;;;5.70;2.53;;;5.30;99.90;;;;;;5030040;28;20109;-91
2023/01/16 10:11:11;;;;;;;7.57;2.50;;;5.30;99.90;;;;;;5033493;28;20101;-89
2023/01/16 10:14:21;;;;;;;6.28;2.00;;;5.30;99.90;;;;;;5019842;28;20167;-93
2023/01/16 10:23:58;;;;;;;4.45;1.90;;;5.30;99.90;;;;;;4961805;28;20039;-92
2023/01/16 10:26:52;;;;;;;3.72;1.73;;;5.30;99.90;;;;;;5039878;28;20489;-89
2023/01/16 10:30:07;;;;;;;5.28;1.80;;;5.30;99.90;;;;;;5033728;28;20031;-88
2023/01/16 10:32:41;;;;;;;4.80;1.75;;;5.30;99.90;;;;;;5024110;28;20128;-90
2023/01/16 10:35:23;;;;;;;5.85;1.90;;;5.30;99.90;;;;;;5038487;28;20029;-87
2023/01/16 10:37:50;;;;;;;3.95;1.90;;;5.30;99.90;;;;;;5039790;28;20029;-87
2023/01/16 10:40:22;;;;;;;3.42;1.70;;;5.20;99.90;;;;;;5014859;28;20018;-86
2023/01/16 10:51:08;;;;;;;8.63;1.80;;;5.30;99.90;;;;;;5040334;28;20080;-90
2023/01/16 10:53:37;;;;;;;6.40;1.80;;;5.30;99.90;;;;;;5000531;28;20482;-93
2023/01/16 10:56:03;;;;;;;3.20;1.67;;;5.30;99.90;;;;;;5041666;28;20048;-93
2023/01/16 10:58:30;;;;;;;5.07;1.58;;;5.30;99.90;;;;;;5019361;28;20029;-85
2023/01/16 11:01:01;;;;;;;3.85;1.40;;;5.40;99.90;;;;;;5037953;28;20021;-93
2023/01/16 11:03:29;;;;;;;3.55;1.48;;;5.30;99.90;;;;;;5037506;28;20021;-91
2023/01/16 11:18:41;;;;;;;4.00;1.10;;;5.30;99.90;;;;;;5047383;28;20076;-92
2023/01/16 11:21:37;;;;;;;4.60;1.23;;;5.40;99.90;;;;;;5033811;28;20033;-88
2023/01/16 11:24:16;;;;;;;4.88;0.98;;;5.40;99.90;;;;;;5023377;28;20036;-90
2023/01/16 11:26:54;;;;;;;3.03;1.77;;;5.40;99.90;;;;;;5027032;28;20025;-88
2023/01/16 11:29:23;;;;;;;4.05;1.02;;;5.40;99.90;;;;;;5030871;28;20044;-88
2023/01/16 11:31:57;;;;;;;4.03;0.90;;;5.50;99.90;;;;;;5024298;28;20048;-89
2023/01/16 11:34:28;;;;;;;2.25;0.88;;;5.50;99.90;;;;;;5034724;28;20028;-86
2023/01/16 11:36:58;;;;;;;1.95;1.15;;;5.50;99.90;;;;;;5032637;28;20042;-91
2023/01/16 11:39:27;;;;;;;3.13;0.75;;;5.60;99.90;;;;;;5022202;28;20018;-88
2023/01/16 11:41:56;;;;;;;2.25;0.70;;;5.60;99.90;;;;;;5036867;28;20028;-90
2023/01/16 11:47:22;;;;;;;2.53;0.60;;;5.70;99.90;;;;;;5056820;28;20047;-85
2023/01/16 11:49:50;;;;;;;4.75;0.88;;;5.70;99.90;;;;;;5036637;28;20076;-82
2023/01/16 11:52:27;;;;;;;4.55;1.00;;;5.70;99.90;;;;;;5047630;28;20036;-82
2023/01/16 11:54:56;;;;;;;5.40;1.15;;;5.70;99.90;;;;;;5052152;28;20029;-82
2023/01/16 11:57:40;;;;;;;1.90;0.70;;;5.70;99.90;;;;;;5031120;28;20052;-81
2023/01/16 12:00:15;;;;;;;2.53;0.80;;;5.70;99.90;;;;;;5026083;28;20013;-82
2023/01/16 12:03:12;;;;;;;2.78;1.27;;;5.80;99.90;;;;;;5035835;28;20021;-82
2023/01/16 12:05:53;;;;;;;3.13;0.90;;;5.80;99.90;;;;;;5037960;28;20048;-90
2023/01/16 12:08:38;;;;;;;3.85;1.00;;;5.80;99.90;;;;;;5025100;28;20113;-90
2023/01/16 12:11:24;;;;;;;3.72;1.30;;;5.80;99.90;;;;;;5031491;28;20079;-90
2023/01/16 12:14:17;;;;;;;2.03;0.90;;;5.90;99.90;;;;;;5038993;28;20079;-90
2023/01/16 12:17:00;;;;;;;7.10;1.70;;;5.90;99.90;;;;;;5026013;28;20450;-90
2023/01/16 12:19:41;;;;;;;1.83;1.13;;;5.90;99.90;;;;;;5030713;28;20024;-90
2023/01/16 12:22:33;;;;;;;4.22;1.45;;;5.90;99.90;;;;;;5035498;28;20025;-82
2023/01/16 12:25:21;;;;;;;2.88;1.00;;;6.00;99.90;;;;;;5037417;28;20523;-82
2023/01/16 12:28:00;;;;;;;1.83;0.98;;;6.00;99.90;;;;;;5041122;28;20478;-82
2023/01/16 12:34:04;;;;;;;2.08;0.80;;;6.00;99.90;;;;;;5028953;28;20566;-82
2023/01/16 12:36:51;;;;;;;3.20;1.10;;;6.00;99.90;;;;;;5023574;28;20021;-86
2023/01/16 12:39:42;;;;;;;3.05;1.00;;;6.00;99.90;;;;;;5035916;28;20032;-90
2023/01/16 12:46:07;;;;;;;1.42;0.80;;;6.10;99.90;;;;;;5034468;28;20049;-90
2023/01/16 12:48:43;;;;;;;2.97;0.70;;;6.10;99.90;;;;;;5036435;28;20095;-90
2023/01/16 12:51:30;;;;;;;3.28;0.98;;;6.10;99.90;;;;;;5035248;28;20037;-89
2023/01/16 12:54:23;;;;;;;1.20;1.00;;;6.10;99.90;;;;;;5019192;28;20038;-90
2023/01/16 12:56:52;;;;;;;3.95;1.08;;;6.10;99.90;;;;;;5021397;28;20049;-89
2023/01/16 12:59:22;;;;;;;1.88;0.70;;;6.20;99.90;;;;;;5025349;28;20413;-90
2023/01/16 13:02:13;;;;;;;1.17;0.70;;;6.20;99.90;;;;;;5033520;28;20080;-89
2023/01/16 13:04:49;;;;;;;3.25;0.85;;;6.20;99.90;;;;;;5035957;28;20076;-92
